createdAt,value
2023-02-02T00:01:34.715Z,2.37
2023-02-02T00:04:02.180Z,3.20
2023-02-02T00:06:30.732Z,2.77
2023-02-02T00:09:00.062Z,3.00
2023-02-02T00:11:28.012Z,2.67
2023-02-02T00:13:55.551Z,2.70
2023-02-02T00:16:36.487Z,3.10
2023-02-02T00:19:07.185Z,2.83
2023-02-02T00:21:34.569Z,2.70
2023-02-02T00:24:02.223Z,2.03
2023-02-02T00:26:29.954Z,2.17
2023-02-02T00:28:57.335Z,2.80
2023-02-02T00:31:24.787Z,2.63
2023-02-02T00:33:52.328Z,2.80
2023-02-02T00:36:20.932Z,2.60
2023-02-02T00:38:48.913Z,2.50
2023-02-02T00:41:16.699Z,3.00
2023-02-02T00:43:44.249Z,1.77
2023-02-02T00:46:15.159Z,2.87
2023-02-02T00:48:42.632Z,3.13
2023-02-02T00:51:11.085Z,2.80
2023-02-02T00:53:38.428Z,2.93
2023-02-02T00:56:05.996Z,2.90
2023-02-02T00:58:33.369Z,4.20
2023-02-02T01:01:00.708Z,3.00
2023-02-02T01:03:28.047Z,2.10
2023-02-02T01:05:55.384Z,2.80
2023-02-02T01:08:22.705Z,2.67
2023-02-02T01:10:50.086Z,3.70
2023-02-02T01:13:17.397Z,2.60
2023-02-02T01:15:44.810Z,2.77
2023-02-02T01:18:12.107Z,2.33
2023-02-02T01:20:39.521Z,2.47
2023-02-02T01:23:06.838Z,1.83
2023-02-02T01:25:38.547Z,2.87
2023-02-02T01:28:06.433Z,2.70
2023-02-02T01:30:33.756Z,2.40
2023-02-02T01:33:01.120Z,2.50
2023-02-02T01:35:28.473Z,1.90
2023-02-02T01:37:55.965Z,2.40
2023-02-02T01:40:23.374Z,2.93
2023-02-02T01:42:50.778Z,3.03
2023-02-02T01:45:29.823Z,2.90
2023-02-02T01:47:59.802Z,2.67
2023-02-02T01:50:30.669Z,3.30
2023-02-02T01:53:00.193Z,2.77
2023-02-02T01:55:29.633Z,3.60
2023-02-02T01:58:10.544Z,3.10
2023-02-02T02:00:40.666Z,2.90
2023-02-02T02:03:12.904Z,2.93
2023-02-02T02:06:02.448Z,3.63
2023-02-02T02:08:34.059Z,5.10
2023-02-02T02:11:01.580Z,3.67
2023-02-02T02:13:48.579Z,3.03
2023-02-02T02:16:54.739Z,4.70
2023-02-02T02:20:19.669Z,4.20
2023-02-02T02:23:37.556Z,3.93
2023-02-02T02:26:29.601Z,3.20
2023-02-02T02:29:17.481Z,3.60
2023-02-02T02:32:10.182Z,3.73
2023-02-02T02:35:05.211Z,4.80
2023-02-02T02:37:40.959Z,3.30
2023-02-02T02:40:31.193Z,3.47
2023-02-02T02:43:19.591Z,3.50
2023-02-02T02:45:47.686Z,3.37
2023-02-02T02:48:15.341Z,3.13
2023-02-02T02:50:42.848Z,2.93
2023-02-02T02:53:21.689Z,3.40
2023-02-02T02:56:09.894Z,4.17
2023-02-02T02:58:55.193Z,3.53
2023-02-02T03:01:28.100Z,3.43
2023-02-02T03:04:04.088Z,3.13
2023-02-02T03:06:34.388Z,3.40
2023-02-02T03:09:11.313Z,3.50
2023-02-02T03:11:38.697Z,2.67
2023-02-02T03:14:09.621Z,4.10
2023-02-02T03:16:37.612Z,3.63
2023-02-02T03:19:06.070Z,5.23
2023-02-02T03:21:34.222Z,4.03
2023-02-02T03:24:02.201Z,3.60
2023-02-02T03:26:29.655Z,3.17
2023-02-02T03:28:57.781Z,3.13
2023-02-02T03:31:27.153Z,3.77
2023-02-02T03:33:54.973Z,4.30
2023-02-02T03:36:22.818Z,3.73
2023-02-02T03:38:50.127Z,3.37
2023-02-02T03:41:17.560Z,3.10
2023-02-02T03:43:44.923Z,3.90
2023-02-02T03:46:12.307Z,4.00
2023-02-02T03:48:39.831Z,4.60
2023-02-02T03:51:12.593Z,3.40
2023-02-02T03:53:41.165Z,3.67
2023-02-02T03:56:08.566Z,4.13
2023-02-02T03:58:36.126Z,3.17
2023-02-02T04:01:04.911Z,3.90
2023-02-02T04:03:32.669Z,4.10
2023-02-02T04:06:00.449Z,3.50
2023-02-02T04:08:28.447Z,2.80
2023-02-02T04:10:55.857Z,3.77
2023-02-02T04:13:23.213Z,3.73
2023-02-02T04:15:58.363Z,3.90
2023-02-02T04:18:25.806Z,3.57
2023-02-02T04:21:02.853Z,3.90
2023-02-02T04:23:30.826Z,4.20
2023-02-02T04:25:58.457Z,3.67
2023-02-02T04:28:26.787Z,4.30
2023-02-02T04:30:55.825Z,3.50
2023-02-02T04:33:24.630Z,3.47
2023-02-02T04:35:52.002Z,3.77
2023-02-02T04:38:19.940Z,2.80
2023-02-02T04:40:48.205Z,3.80
2023-02-02T04:43:15.738Z,3.43
2023-02-02T04:45:43.209Z,3.17
2023-02-02T04:48:10.827Z,4.10
2023-02-02T04:50:38.197Z,3.90
2023-02-02T04:53:05.949Z,3.03
2023-02-02T04:55:37.891Z,4.10
2023-02-02T04:58:05.898Z,3.73
2023-02-02T05:00:33.579Z,3.67
2023-02-02T05:03:01.417Z,4.17
2023-02-02T05:05:28.824Z,3.10
2023-02-02T05:07:56.196Z,4.30
2023-02-02T05:10:23.545Z,5.67
2023-02-02T05:12:53.767Z,3.80
2023-02-02T05:15:22.170Z,4.00
2023-02-02T05:17:50.188Z,3.30
2023-02-02T05:20:17.695Z,4.43
2023-02-02T05:22:45.077Z,4.80
2023-02-02T05:25:12.398Z,3.80
2023-02-02T05:27:39.749Z,3.73
2023-02-02T05:30:07.709Z,4.27
2023-02-02T05:32:35.087Z,3.90
2023-02-02T05:35:02.544Z,4.23
2023-02-02T05:37:29.908Z,3.67
2023-02-02T05:39:57.194Z,3.33
2023-02-02T05:42:24.539Z,3.27
2023-02-02T05:44:51.871Z,5.10
2023-02-02T05:47:19.265Z,3.67
2023-02-02T05:49:46.575Z,3.53
2023-02-02T05:52:24.120Z,4.03
2023-02-02T05:54:51.480Z,3.27
2023-02-02T05:57:18.860Z,4.50
2023-02-02T05:59:47.177Z,3.80
2023-02-02T06:02:14.509Z,4.90
2023-02-02T06:04:41.897Z,4.60
2023-02-02T06:07:09.248Z,3.30
2023-02-02T06:09:36.626Z,5.00
2023-02-02T06:12:04.148Z,4.13
2023-02-02T06:14:31.747Z,3.60
2023-02-02T06:16:59.087Z,4.27
2023-02-02T06:19:26.474Z,4.50
2023-02-02T06:21:54.029Z,5.63
2023-02-02T06:24:21.393Z,4.20
2023-02-02T06:26:48.797Z,4.73
2023-02-02T06:29:16.205Z,3.77
2023-02-02T06:31:43.699Z,3.27
2023-02-02T06:34:14.997Z,3.70
2023-02-02T06:36:42.769Z,3.40
2023-02-02T06:39:10.327Z,3.20
2023-02-02T06:41:37.892Z,4.37
2023-02-02T06:44:05.264Z,3.27
2023-02-02T06:46:32.703Z,3.83
2023-02-02T06:49:00.184Z,6.77
2023-02-02T06:51:27.533Z,3.73
2023-02-02T06:53:55.026Z,4.00
2023-02-02T06:56:22.902Z,5.67
2023-02-02T06:58:50.260Z,3.77
2023-02-02T07:01:17.700Z,3.60
2023-02-02T07:03:50.042Z,4.93
2023-02-02T07:06:23.024Z,3.53
2023-02-02T07:09:02.038Z,3.37
2023-02-02T07:11:30.834Z,3.53
2023-02-02T07:13:58.667Z,3.20
2023-02-02T07:16:26.045Z,3.73
2023-02-02T07:18:53.421Z,3.30
2023-02-02T07:21:23.087Z,3.70
2023-02-02T07:23:51.257Z,3.70
2023-02-02T07:26:19.717Z,3.50
2023-02-02T07:28:47.627Z,4.30
2023-02-02T07:31:23.744Z,5.10
2023-02-02T07:33:51.809Z,5.53
2023-02-02T07:36:21.248Z,5.27
2023-02-02T07:38:50.380Z,4.63
2023-02-02T07:41:17.842Z,5.60
2023-02-02T07:43:47.970Z,4.03
2023-02-02T07:46:15.766Z,4.20
2023-02-02T07:48:43.207Z,4.00
2023-02-02T07:51:14.177Z,4.17
2023-02-02T07:53:47.711Z,3.90
2023-02-02T07:56:23.800Z,5.10
2023-02-02T07:58:53.146Z,3.83
2023-02-02T08:01:22.953Z,3.83
2023-02-02T08:03:51.110Z,4.20
2023-02-02T08:06:19.878Z,4.90
2023-02-02T08:08:47.918Z,5.50
2023-02-02T08:11:17.140Z,3.80
2023-02-02T08:13:44.846Z,3.00
2023-02-02T08:16:13.115Z,3.27
2023-02-02T08:18:40.687Z,3.30
2023-02-02T08:21:09.023Z,3.77
2023-02-02T08:23:37.709Z,3.70
2023-02-02T08:26:12.080Z,4.10
2023-02-02T08:28:41.790Z,3.43
2023-02-02T08:31:11.275Z,4.27
2023-02-02T08:33:39.775Z,3.60
2023-02-02T08:36:13.952Z,3.50
2023-02-02T08:38:41.438Z,4.70
2023-02-02T08:41:12.324Z,5.10
2023-02-02T08:43:40.579Z,4.27
2023-02-02T08:46:10.302Z,3.70
2023-02-02T08:48:38.417Z,3.57
2023-02-02T08:51:06.762Z,3.70
2023-02-02T08:53:34.645Z,4.57
2023-02-02T08:56:06.750Z,4.00
2023-02-02T08:58:34.558Z,5.00
2023-02-02T09:01:10.808Z,4.00
2023-02-02T09:03:40.221Z,4.00
2023-02-02T09:06:08.327Z,5.80
2023-02-02T09:08:36.042Z,3.37
2023-02-02T09:11:12.313Z,4.00
2023-02-02T09:13:40.734Z,4.67
2023-02-02T09:16:10.400Z,4.67
2023-02-02T09:18:38.012Z,3.57
2023-02-02T09:21:07.703Z,4.20
2023-02-02T09:23:37.228Z,5.30
2023-02-02T09:26:11.587Z,4.50
2023-02-02T09:28:40.310Z,5.07
2023-02-02T09:31:08.299Z,4.07
2023-02-02T09:33:36.163Z,5.43
2023-02-02T09:36:11.863Z,4.97
2023-02-02T09:38:40.349Z,5.20
2023-02-02T09:41:30.795Z,3.50
2023-02-02T09:44:04.195Z,5.07
2023-02-02T09:46:46.400Z,4.67
2023-02-02T09:49:17.763Z,3.80
2023-02-02T09:51:48.941Z,3.63
2023-02-02T09:54:23.002Z,4.50
2023-02-02T09:56:55.761Z,4.43
2023-02-02T09:59:37.048Z,4.50
2023-02-02T10:02:17.357Z,4.80
2023-02-02T10:04:49.024Z,3.90
2023-02-02T10:07:25.074Z,5.50
2023-02-02T10:10:18.369Z,3.37
2023-02-02T10:13:12.049Z,4.60
2023-02-02T10:15:54.763Z,4.20
2023-02-02T10:18:35.474Z,4.80
2023-02-02T10:21:26.659Z,4.17
2023-02-02T10:23:55.425Z,5.60
2023-02-02T10:26:38.815Z,5.57
2023-02-02T10:29:24.558Z,3.73
2023-02-02T10:32:13.203Z,4.80
2023-02-02T10:34:49.475Z,4.67
2023-02-02T10:37:31.878Z,5.40
2023-02-02T10:40:20.231Z,4.90
2023-02-02T10:43:25.191Z,4.10
2023-02-02T10:45:52.961Z,3.53
2023-02-02T10:48:32.639Z,3.57
2023-02-02T10:51:27.722Z,3.77
2023-02-02T10:53:59.625Z,4.23
2023-02-02T10:56:36.528Z,4.33
2023-02-02T10:59:11.296Z,4.10
2023-02-02T11:01:38.616Z,4.80
2023-02-02T11:04:24.829Z,3.60
2023-02-02T11:06:52.531Z,3.53
2023-02-02T11:09:23.598Z,4.20
2023-02-02T11:12:12.784Z,4.30
2023-02-02T11:15:07.493Z,3.90
2023-02-02T11:17:35.436Z,4.60
2023-02-02T11:20:03.234Z,3.33
2023-02-02T11:22:38.493Z,2.90
2023-02-02T11:25:36.410Z,3.23
2023-02-02T11:28:19.126Z,3.67
2023-02-02T11:30:52.632Z,3.60
2023-02-02T11:33:31.207Z,3.60
2023-02-02T11:36:01.782Z,4.30
2023-02-02T11:38:29.559Z,3.93
2023-02-02T11:41:09.203Z,4.53
2023-02-02T11:43:57.914Z,3.03
2023-02-02T11:46:31.136Z,3.03
2023-02-02T11:49:05.349Z,2.93
2023-02-02T11:51:33.004Z,4.87
2023-02-02T11:54:07.364Z,4.30
2023-02-02T11:56:39.297Z,4.20
2023-02-02T11:59:09.476Z,3.90
2023-02-02T12:01:41.262Z,4.20
2023-02-02T12:04:17.480Z,3.57
2023-02-02T12:06:45.673Z,4.30
2023-02-02T12:09:15.499Z,3.70
2023-02-02T12:12:03.492Z,4.40
2023-02-02T12:14:44.469Z,3.90
2023-02-02T12:17:25.023Z,4.90
2023-02-02T12:19:55.097Z,4.63
2023-02-02T12:22:57.975Z,3.40
2023-02-02T12:26:00.367Z,4.87
2023-02-02T12:28:30.594Z,4.03
2023-02-02T12:31:42.929Z,2.97
2023-02-02T12:34:35.557Z,2.70
2023-02-02T12:37:08.879Z,3.67
2023-02-02T12:39:48.384Z,3.93
2023-02-02T12:42:41.596Z,3.27
2023-02-02T12:45:27.205Z,4.17
2023-02-02T12:48:29.174Z,2.80
2023-02-02T12:51:23.075Z,3.60
2023-02-02T12:54:32.997Z,3.63
2023-02-02T12:57:14.189Z,2.60
2023-02-02T13:00:24.119Z,3.67
2023-02-02T13:02:58.688Z,3.80
2023-02-02T13:05:44.161Z,4.37
2023-02-02T13:08:15.539Z,5.17
2023-02-02T13:10:53.532Z,3.20
2023-02-02T13:13:27.482Z,3.77
2023-02-02T13:16:07.595Z,3.50
2023-02-02T13:18:42.925Z,4.23
2023-02-02T13:21:16.899Z,4.57
2023-02-02T13:23:50.584Z,3.87
2023-02-02T13:26:20.743Z,4.30
2023-02-02T13:29:02.507Z,4.50
2023-02-02T13:31:40.645Z,4.70
2023-02-02T13:34:42.929Z,4.80
2023-02-02T13:37:28.445Z,4.63
2023-02-02T13:39:58.933Z,4.60
2023-02-02T13:42:53.175Z,4.87
2023-02-02T13:45:34.511Z,6.20
2023-02-02T13:48:19.630Z,4.10
2023-02-02T13:50:59.490Z,4.50
2023-02-02T13:53:47.894Z,3.83
2023-02-02T13:56:50.499Z,5.00
2023-02-02T13:59:17.745Z,3.80
2023-02-02T14:01:48.781Z,3.77
2023-02-02T14:04:27.975Z,4.63
2023-02-02T14:09:34.512Z,3.80
2023-02-02T14:12:10.175Z,5.10
2023-02-02T14:14:39.825Z,4.20
2023-02-02T14:17:32.940Z,3.90
2023-02-02T14:20:02.392Z,4.50
2023-02-02T14:22:50.845Z,3.80
2023-02-02T14:25:33.409Z,4.53
2023-02-02T14:28:03.485Z,4.13
2023-02-02T14:30:36.280Z,3.23
2023-02-02T14:33:25.405Z,3.67
2023-02-02T14:36:01.089Z,3.27
2023-02-02T14:38:37.840Z,4.10
2023-02-02T14:41:39.591Z,4.97
2023-02-02T14:44:07.149Z,5.13
2023-02-02T14:46:36.663Z,4.93
2023-02-02T14:49:04.008Z,3.40
2023-02-02T14:51:33.377Z,3.47
2023-02-02T14:54:05.057Z,3.80
2023-02-02T14:56:51.941Z,3.90
2023-02-02T14:59:35.676Z,4.30
2023-02-02T15:02:15.517Z,3.73
2023-02-02T15:04:43.853Z,3.30
2023-02-02T15:07:23.661Z,3.17
2023-02-02T15:09:52.043Z,3.50
2023-02-02T15:12:45.807Z,4.10
2023-02-02T15:15:23.950Z,3.87
2023-02-02T15:18:00.877Z,2.87
2023-02-02T15:20:29.474Z,3.03
2023-02-02T15:23:07.334Z,3.10
2023-02-02T15:25:59.221Z,4.00
2023-02-02T15:28:46.621Z,3.07
2023-02-02T15:31:28.844Z,2.50
2023-02-02T15:34:14.774Z,2.80
2023-02-02T15:36:44.058Z,2.50
2023-02-02T15:39:30.947Z,4.10
2023-02-02T15:42:19.360Z,3.20
2023-02-02T15:44:46.749Z,2.90
2023-02-02T15:47:20.370Z,3.10
2023-02-02T15:49:47.760Z,2.40
2023-02-02T15:52:17.673Z,2.57
2023-02-02T15:54:54.377Z,3.07
2023-02-02T15:57:27.408Z,2.90
2023-02-02T15:59:55.008Z,2.17
2023-02-02T16:02:43.140Z,2.73
2023-02-02T16:05:31.678Z,3.00
2023-02-02T16:08:06.106Z,2.37
2023-02-02T16:10:34.693Z,3.80
2023-02-02T16:13:02.556Z,3.00
2023-02-02T16:15:32.063Z,2.40
2023-02-02T16:18:03.223Z,1.90
2023-02-02T16:20:33.187Z,1.80
2023-02-02T16:23:02.191Z,2.60
2023-02-02T16:25:35.038Z,2.43
2023-02-02T16:28:03.462Z,3.13
2023-02-02T16:30:36.289Z,2.70
2023-02-02T16:33:36.078Z,2.10
2023-02-02T16:36:26.000Z,2.90
2023-02-02T16:38:55.231Z,2.87
2023-02-02T16:41:34.417Z,4.03
2023-02-02T16:44:37.722Z,4.60
2023-02-02T16:47:07.252Z,3.13
2023-02-02T16:49:35.073Z,4.10
2023-02-02T16:52:17.993Z,3.30
2023-02-02T16:54:55.878Z,3.27
2023-02-02T16:57:34.479Z,3.77
2023-02-02T17:00:06.407Z,3.90
2023-02-02T17:02:41.958Z,3.47
2023-02-02T17:05:17.181Z,3.60
2023-02-02T17:08:08.375Z,2.93
2023-02-02T17:10:39.665Z,3.83
2023-02-02T17:13:36.325Z,2.80
2023-02-02T17:16:04.256Z,3.00
2023-02-02T17:18:31.653Z,3.70
2023-02-02T17:21:04.061Z,2.67
2023-02-02T17:23:36.273Z,2.10
2023-02-02T17:26:04.106Z,2.10
2023-02-02T17:28:32.098Z,2.40
2023-02-02T17:31:02.717Z,2.10
2023-02-02T17:33:35.073Z,3.03
2023-02-02T17:36:03.017Z,1.93
2023-02-02T17:38:30.582Z,3.13
2023-02-02T17:41:01.598Z,2.60
2023-02-02T17:43:30.257Z,2.47
2023-02-02T17:45:57.817Z,1.97
2023-02-02T17:48:25.256Z,3.00
2023-02-02T17:50:52.632Z,3.60
2023-02-02T17:53:22.464Z,2.20
2023-02-02T17:55:51.488Z,2.60
2023-02-02T17:58:19.540Z,3.20
2023-02-02T18:00:51.217Z,2.00
2023-02-02T18:03:20.066Z,2.87
2023-02-02T18:05:47.523Z,3.00
2023-02-02T18:08:15.416Z,3.13
2023-02-02T18:10:43.717Z,2.47
2023-02-02T18:13:19.407Z,3.33
2023-02-02T18:15:47.710Z,2.87
2023-02-02T18:18:15.104Z,2.90
2023-02-02T18:20:49.795Z,3.80
2023-02-02T18:23:18.644Z,3.10
2023-02-02T18:25:46.262Z,2.93
2023-02-02T18:28:17.197Z,2.53
2023-02-02T18:30:48.396Z,2.57
2023-02-02T18:33:20.077Z,3.03
2023-02-02T18:35:48.101Z,2.03
2023-02-02T18:38:15.675Z,2.67
2023-02-02T18:40:43.133Z,3.20
2023-02-02T18:43:10.769Z,3.23
2023-02-02T18:45:38.184Z,2.40
2023-02-02T18:48:05.660Z,2.73
2023-02-02T18:50:33.034Z,3.17
2023-02-02T18:53:00.413Z,3.10
2023-02-02T18:55:28.183Z,3.77
2023-02-02T18:57:55.749Z,3.00
2023-02-02T19:00:23.189Z,3.17
2023-02-02T19:02:50.518Z,2.70
2023-02-02T19:05:36.592Z,3.33
2023-02-02T19:08:05.758Z,2.77
2023-02-02T19:10:33.229Z,2.60
2023-02-02T19:13:19.338Z,3.03
2023-02-02T19:15:50.570Z,3.47
2023-02-02T19:18:20.441Z,3.00
2023-02-02T19:20:48.538Z,2.63
2023-02-02T19:23:18.517Z,3.13
2023-02-02T19:25:51.283Z,3.43
2023-02-02T19:28:21.687Z,3.07
2023-02-02T19:30:49.377Z,2.80
2023-02-02T19:33:17.207Z,2.77
2023-02-02T19:35:49.524Z,2.63
2023-02-02T19:38:20.734Z,3.13
2023-02-02T19:40:48.638Z,2.87
2023-02-02T19:43:27.259Z,2.70
2023-02-02T19:45:55.662Z,2.67
2023-02-02T19:48:27.868Z,2.60
2023-02-02T19:50:55.933Z,5.67
2023-02-02T19:53:32.452Z,2.27
2023-02-02T19:55:59.801Z,2.30
2023-02-02T19:58:31.792Z,2.70
2023-02-02T20:01:18.583Z,2.70
2023-02-02T20:03:46.650Z,3.10
2023-02-02T20:06:24.765Z,2.63
2023-02-02T20:08:52.443Z,2.80
2023-02-02T20:11:53.262Z,2.80
2023-02-02T20:14:21.572Z,2.23
2023-02-02T20:16:54.689Z,2.93
2023-02-02T20:19:33.490Z,3.03
2023-02-02T20:22:01.002Z,2.97
2023-02-02T20:24:36.810Z,2.80
2023-02-02T20:27:22.245Z,2.20
2023-02-02T20:29:51.739Z,3.10
2023-02-02T20:32:22.405Z,3.00
2023-02-02T20:34:51.049Z,2.23
2023-02-02T20:37:23.608Z,2.73
2023-02-02T20:39:58.037Z,2.30
2023-02-02T20:42:25.651Z,2.67
2023-02-02T20:44:53.462Z,2.70
2023-02-02T20:47:21.341Z,2.47
2023-02-02T20:49:48.730Z,2.30
2023-02-02T20:52:23.268Z,2.10
2023-02-02T20:54:52.316Z,3.30
2023-02-02T20:57:19.713Z,2.23
2023-02-02T20:59:47.053Z,2.20
2023-02-02T21:02:19.083Z,2.63
2023-02-02T21:04:50.168Z,2.33
2023-02-02T21:07:18.746Z,2.53
2023-02-02T21:09:47.723Z,2.07
2023-02-02T21:12:15.204Z,2.10
2023-02-02T21:14:44.937Z,2.27
2023-02-02T21:17:15.512Z,1.90
2023-02-02T21:19:43.752Z,2.10
2023-02-02T21:22:11.924Z,1.80
2023-02-02T21:24:39.380Z,1.83
2023-02-02T21:27:07.007Z,2.30
2023-02-02T21:29:34.820Z,3.37
2023-02-02T21:32:03.135Z,1.63
2023-02-02T21:34:31.228Z,2.07
2023-02-02T21:36:59.432Z,2.23
2023-02-02T21:39:37.053Z,2.40
2023-02-02T21:42:11.847Z,1.90
2023-02-02T21:44:45.700Z,2.20
2023-02-02T21:47:37.039Z,2.00
2023-02-02T21:50:19.346Z,2.70
2023-02-02T21:52:47.166Z,2.10
2023-02-02T21:55:35.507Z,1.57
2023-02-02T21:58:27.672Z,1.80
2023-02-02T22:00:58.181Z,3.50
2023-02-02T22:03:35.363Z,1.60
2023-02-02T22:06:26.318Z,1.53
2023-02-02T22:09:13.390Z,2.37
2023-02-02T22:11:47.878Z,2.30
2023-02-02T22:14:20.274Z,1.50
2023-02-02T22:16:50.774Z,1.20
2023-02-02T22:19:26.385Z,1.80
2023-02-02T22:21:56.257Z,1.60
2023-02-02T22:24:24.382Z,1.37
2023-02-02T22:26:51.736Z,2.43
2023-02-02T22:29:24.467Z,1.70
2023-02-02T22:31:51.834Z,2.00
2023-02-02T22:34:19.167Z,1.70
2023-02-02T22:36:46.482Z,2.40
2023-02-02T22:39:13.780Z,1.77
2023-02-02T22:41:41.185Z,2.10
2023-02-02T22:44:08.634Z,2.13
2023-02-02T22:46:36.042Z,2.10
2023-02-02T22:49:03.372Z,2.17
2023-02-02T22:51:30.751Z,1.80
2023-02-02T22:53:58.058Z,2.00
2023-02-02T22:56:26.167Z,1.93
2023-02-02T22:58:53.511Z,2.40
2023-02-02T23:01:20.931Z,2.23
2023-02-02T23:03:49.547Z,2.70
2023-02-02T23:06:16.910Z,3.10
2023-02-02T23:08:44.335Z,2.40
2023-02-02T23:11:11.705Z,2.17
2023-02-02T23:13:39.012Z,2.80
2023-02-02T23:16:07.204Z,2.17
2023-02-02T23:18:34.598Z,1.90
2023-02-02T23:21:01.975Z,2.80
2023-02-02T23:23:29.278Z,2.53
2023-02-02T23:25:56.607Z,1.80
2023-02-02T23:28:23.901Z,2.40
2023-02-02T23:30:51.715Z,1.90
2023-02-02T23:33:19.130Z,1.70
2023-02-02T23:35:46.485Z,2.10
2023-02-02T23:38:14.012Z,2.47
2023-02-02T23:40:41.396Z,2.00
2023-02-02T23:43:08.788Z,2.50
2023-02-02T23:45:36.288Z,1.90
2023-02-02T23:48:03.709Z,1.93
2023-02-02T23:50:31.148Z,1.80
2023-02-02T23:52:58.569Z,2.20
2023-02-02T23:55:25.957Z,2.10
2023-02-02T23:57:53.311Z,1.50
